Time;durP1;ratioP1;P1;durP2;ratioP2;P2;SDS_P1;SDS_P2;PMS_P1;PMS_P2;Temp;Humidity;BMP_temperature;BMP_pressure;BME280_temperature;BME280_humidity;BME280_pressure;Samples;Min_cycle;Max_cycle;Signal;HPM_P1;HPM_P2
2023/08/06 00:00:51;;;;;;;0.20;0.20;;;;;;;16.27;79.37;96694.47;5068482;28;20037;-73
2023/08/06 00:03:19;;;;;;;0.10;0.10;;;;;;;16.22;79.38;96686.31;5064891;28;20040;-73
2023/08/06 00:05:46;;;;;;;0.10;0.10;;;;;;;16.37;78.63;96683.00;5068071;28;20086;-72
2023/08/06 00:08:14;;;;;;;0.03;0.03;;;;;;;16.29;79.00;96689.66;5070533;28;20036;-72
2023/08/06 00:10:42;;;;;;;0.20;0.20;;;;;;;16.26;79.11;96684.75;5067610;28;20485;-72
2023/08/06 00:13:10;;;;;;;0.10;0.10;;;;;;;16.41;78.48;96689.47;5074521;28;20036;-72
2023/08/06 00:15:39;;;;;;;0.10;0.10;;;;;;;16.30;79.08;96685.88;5063600;28;20526;-72
2023/08/06 00:18:06;;;;;;;0.10;0.10;;;;;;;16.20;79.39;96680.38;5070625;28;20513;-72
2023/08/06 00:20:34;;;;;;;0.13;0.13;;;;;;;16.18;79.48;96687.09;5072260;28;20042;-73
2023/08/06 00:23:02;;;;;;;0.10;0.10;;;;;;;16.07;79.72;96688.88;5065879;28;20549;-72
2023/08/06 00:25:29;;;;;;;0.20;0.15;;;;;;;16.02;79.92;96686.09;5072305;28;20062;-72
2023/08/06 00:27:57;;;;;;;0.10;0.10;;;;;;;15.98;80.01;96693.88;5065752;28;20412;-72
2023/08/06 00:30:25;;;;;;;0.15;0.15;;;;;;;15.96;80.21;96690.63;5070860;28;20230;-72
2023/08/06 00:32:54;;;;;;;0.10;0.10;;;;;;;16.01;79.78;96700.63;5065344;28;20124;-72
2023/08/06 00:35:22;;;;;;;0.20;0.17;;;;;;;16.07;79.80;96703.13;5059664;28;20076;-72
2023/08/06 00:37:49;;;;;;;0.10;0.10;;;;;;;16.05;79.95;96705.25;5055420;28;20048;-72
2023/08/06 00:40:17;;;;;;;0.30;0.30;;;;;;;16.06;79.82;96696.13;5075153;28;20037;-72
2023/08/06 00:42:46;;;;;;;0.10;0.10;;;;;;;16.03;80.08;96690.41;5086543;28;20040;-72
2023/08/06 00:45:14;;;;;;;0.17;0.17;;;;;;;15.94;80.15;96671.22;5055464;28;20037;-72
2023/08/06 00:47:42;;;;;;;0.10;0.10;;;;;;;15.95;80.23;96672.84;5067615;28;20095;-72
2023/08/06 00:50:13;;;;;;;0.10;0.10;;;;;;;15.93;80.35;96671.47;5066139;28;20037;-72
2023/08/06 00:52:41;;;;;;;0.10;0.10;;;;;;;15.87;80.46;96672.47;5070168;28;20043;-72
2023/08/06 00:55:09;;;;;;;0.13;0.13;;;;;;;15.94;80.18;96665.81;5066492;28;20072;-72
2023/08/06 00:57:37;;;;;;;0.10;0.10;;;;;;;15.97;80.19;96669.91;5064113;28;20098;-72
2023/08/06 01:00:06;;;;;;;0.10;0.10;;;;;;;15.89;80.31;96675.69;5067677;28;20060;-73
2023/08/06 01:02:34;;;;;;;0.10;0.10;;;;;;;16.00;79.91;96672.06;5071846;28;20068;-73
2023/08/06 01:05:02;;;;;;;0.30;0.30;;;;;;;15.95;80.35;96677.41;5067231;28;20440;-73
2023/08/06 01:07:41;;;;;;;0.10;0.10;;;;;;;15.91;80.23;96658.25;5068401;28;20044;-73
2023/08/06 01:10:23;;;;;;;0.10;0.10;;;;;;;15.91;80.02;96662.81;5061208;28;20063;-73
2023/08/06 01:12:57;;;;;;;0.10;0.10;;;;;;;15.90;80.24;96662.00;5068481;28;20125;-73
2023/08/06 01:15:30;;;;;;;0.10;0.10;;;;;;;15.99;79.74;96673.13;5063844;28;20041;-73
2023/08/06 01:17:59;;;;;;;0.20;0.20;;;;;;;15.96;79.72;96668.28;5059522;28;20055;-73
2023/08/06 01:20:30;;;;;;;0.10;0.10;;;;;;;16.00;79.54;96661.31;5069593;28;20110;-74
2023/08/06 01:22:58;;;;;;;0.10;0.10;;;;;;;16.04;79.28;96662.44;5067760;28;20102;-73
2023/08/06 01:25:30;;;;;;;0.10;0.10;;;;;;;16.03;78.52;96658.13;5064404;28;20040;-73
2023/08/06 01:27:57;;;;;;;;;;;;;;;16.02;78.51;96651.09;5066336;28;20076;-72
2023/08/06 01:30:27;;;;;;;0.17;0.17;;;;;;;16.04;78.58;96652.47;5070483;28;19920;-73
2023/08/06 01:33:00;;;;;;;0.10;0.10;;;;;;;16.15;78.17;96654.22;5065588;28;20066;-74
2023/08/06 01:35:29;;;;;;;0.10;0.10;;;;;;;16.20;77.84;96644.56;5061242;28;20499;-73
2023/08/06 01:38:00;;;;;;;0.10;0.10;;;;;;;16.26;78.02;96647.06;5067618;28;20044;-72
2023/08/06 01:40:29;;;;;;;0.20;0.20;;;;;;;16.22;77.28;96637.84;5066978;28;20433;-73
2023/08/06 01:42:57;;;;;;;0.10;0.10;;;;;;;16.16;77.06;96636.19;5077873;28;20537;-74
2023/08/06 01:45:25;;;;;;;0.10;0.10;;;;;;;16.15;77.49;96630.00;5065968;28;20059;-71
2023/08/06 01:47:52;;;;;;;0.10;0.10;;;;;;;16.19;77.28;96629.50;5070078;28;20125;-72
2023/08/06 01:50:20;;;;;;;0.25;0.25;;;;;;;16.13;76.68;96621.34;5060202;28;20422;-72
2023/08/06 01:52:49;;;;;;;0.10;0.10;;;;;;;16.14;76.70;96612.22;5069545;28;20064;-73
2023/08/06 01:55:18;;;;;;;0.10;0.10;;;;;;;16.17;76.96;96612.78;5070477;28;20044;-72
2023/08/06 01:57:45;;;;;;;0.10;0.10;;;;;;;16.19;76.63;96614.16;5065238;28;20048;-72
2023/08/06 02:00:13;;;;;;;0.10;0.10;;;;;;;16.27;76.89;96623.63;5077381;28;20036;-72
2023/08/06 02:02:41;;;;;;;0.10;0.10;;;;;;;16.08;77.66;96623.19;5070094;28;20044;-75
2023/08/06 02:05:10;;;;;;;0.20;0.20;;;;;;;15.96;78.96;96631.41;5066566;28;20044;-72
2023/08/06 02:07:40;;;;;;;0.10;0.10;;;;;;;15.90;79.10;96628.88;5067877;28;20501;-71
2023/08/06 02:10:09;;;;;;;0.30;0.30;;;;;;;15.85;79.48;96623.47;5060006;28;20450;-72
2023/08/06 02:12:37;;;;;;;0.10;0.10;;;;;;;15.81;79.97;96619.63;5061957;28;20051;-71
2023/08/06 02:15:06;;;;;;;0.05;0.05;;;;;;;15.83;80.05;96617.50;5064241;28;20075;-72
2023/08/06 02:17:33;;;;;;;0.10;0.10;;;;;;;15.90;79.92;96605.47;5061327;28;20071;-71
2023/08/06 02:20:01;;;;;;;0.10;0.10;;;;;;;16.06;79.47;96601.09;5063115;28;20049;-73
2023/08/06 02:22:29;;;;;;;0.13;0.13;;;;;;;16.05;79.76;96596.75;5063512;28;20056;-72
2023/08/06 02:24:58;;;;;;;0.20;0.20;;;;;;;15.91;79.68;96592.84;5065156;28;20054;-71
2023/08/06 02:27:27;;;;;;;0.10;0.10;;;;;;;15.91;79.76;96587.44;5067319;28;20098;-70
2023/08/06 02:29:55;;;;;;;0.13;0.13;;;;;;;15.94;79.77;96585.09;5070902;28;20115;-71
2023/08/06 02:32:23;;;;;;;0.20;0.20;;;;;;;15.91;79.50;96587.44;5068794;28;20044;-70
2023/08/06 02:34:50;;;;;;;0.10;0.10;;;;;;;15.82;79.81;96581.72;5072749;28;20048;-71
2023/08/06 02:37:18;;;;;;;0.13;0.13;;;;;;;15.79;79.89;96580.34;5071457;28;20063;-71
2023/08/06 02:39:46;;;;;;;0.10;0.10;;;;;;;15.88;79.80;96587.97;5077618;28;20064;-71
2023/08/06 02:42:13;;;;;;;0.10;0.10;;;;;;;15.91;79.79;96582.88;5065476;28;20040;-71
2023/08/06 02:44:43;;;;;;;0.10;0.10;;;;;;;15.95;79.77;96585.91;5071977;28;20033;-72
2023/08/06 02:47:10;;;;;;;0.38;0.38;;;;;;;15.83;79.69;96588.72;5068938;28;20441;-72
2023/08/06 02:49:38;;;;;;;0.10;0.10;;;;;;;15.72;78.84;96590.50;5063113;28;20501;-71
2023/08/06 02:52:07;;;;;;;0.13;0.13;;;;;;;15.50;78.80;96578.91;5072635;28;20055;-72
2023/08/06 02:54:35;;;;;;;0.10;0.10;;;;;;;15.45;79.33;96578.03;5073401;28;20042;-73
2023/08/06 02:57:02;;;;;;;0.10;0.10;;;;;;;15.39;79.48;96580.66;5061380;28;20044;-71
2023/08/06 02:59:34;;;;;;;0.10;0.10;;;;;;;15.41;79.21;96569.66;5062499;28;20044;-71
2023/08/06 03:02:10;;;;;;;0.10;0.10;;;;;;;15.32;78.69;96574.66;5088105;28;20050;-72
2023/08/06 03:04:53;;;;;;;0.10;0.10;;;;;;;15.36;78.98;96570.41;5068782;28;20095;-71
2023/08/06 03:07:24;;;;;;;0.10;0.10;;;;;;;15.33;78.42;96576.28;5067125;28;20090;-72
2023/08/06 03:09:57;;;;;;;0.10;0.10;;;;;;;15.26;78.38;96569.47;5068350;28;20048;-72
2023/08/06 03:12:25;;;;;;;0.20;0.20;;;;;;;15.28;77.93;96567.31;5067309;28;20044;-72
2023/08/06 03:14:53;;;;;;;0.20;0.20;;;;;;;15.29;77.89;96572.44;5072954;28;20045;-71
2023/08/06 03:17:22;;;;;;;0.10;0.10;;;;;;;15.25;77.45;96570.53;5067002;28;20059;-72
2023/08/06 03:19:50;;;;;;;0.10;0.10;;;;;;;15.23;78.06;96581.53;5068723;28;20041;-72
2023/08/06 03:22:18;;;;;;;0.10;0.10;;;;;;;15.21;78.62;96574.75;5062733;28;20076;-72
2023/08/06 03:24:46;;;;;;;0.10;0.10;;;;;;;15.22;79.01;96573.72;5068248;28;20040;-72
2023/08/06 03:27:14;;;;;;;0.20;0.20;;;;;;;15.21;78.96;96572.06;5065716;28;20036;-72
2023/08/06 03:29:43;;;;;;;0.20;0.20;;;;;;;15.19;78.38;96568.81;5066268;28;20055;-71
2023/08/06 03:32:11;;;;;;;0.10;0.10;;;;;;;15.09;79.37;96582.13;5077791;28;20052;-71
2023/08/06 03:34:42;;;;;;;0.10;0.10;;;;;;;15.06;79.22;96570.81;5061218;28;20040;-71
2023/08/06 03:37:09;;;;;;;0.10;0.10;;;;;;;15.09;79.01;96564.13;5070032;28;20037;-72
2023/08/06 03:39:37;;;;;;;0.40;0.40;;;;;;;15.09;78.78;96558.75;5072670;28;20546;-71
2023/08/06 03:42:06;;;;;;;0.10;0.10;;;;;;;15.10;78.96;96560.38;5069028;28;20044;-72
2023/08/06 03:44:33;;;;;;;0.10;0.10;;;;;;;15.11;78.67;96553.94;5087500;28;20098;-72
2023/08/06 03:47:01;;;;;;;0.20;0.20;;;;;;;15.19;78.92;96558.88;5066001;28;20040;-72
2023/08/06 03:49:29;;;;;;;0.20;0.20;;;;;;;15.21;78.87;96559.44;5064004;28;20041;-72
2023/08/06 03:51:58;;;;;;;0.10;0.10;;;;;;;15.18;78.63;96549.19;5061556;28;20574;-71
2023/08/06 03:54:25;;;;;;;0.17;0.17;;;;;;;15.17;78.73;96554.81;5064459;28;20136;-72
2023/08/06 03:56:53;;;;;;;0.80;0.80;;;;;;;15.30;78.41;96557.94;5071196;28;20437;-72
2023/08/06 03:59:21;;;;;;;0.00;0.00;;;;;;;15.34;78.10;96560.97;5066302;28;20040;-72
2023/08/06 04:01:49;;;;;;;0.10;0.10;;;;;;;15.22;78.87;96549.50;5070232;28;20033;-71
2023/08/06 04:04:17;;;;;;;0.10;0.10;;;;;;;15.13;79.11;96551.81;5066110;28;20501;-72
2023/08/06 04:06:45;;;;;;;0.20;0.20;;;;;;;15.18;78.24;96546.50;5068415;28;20083;-73
2023/08/06 04:09:15;;;;;;;0.10;0.10;;;;;;;15.32;77.92;96541.56;5060837;28;20521;-74
2023/08/06 04:11:43;;;;;;;0.13;0.13;;;;;;;15.25;77.64;96536.41;5069033;28;20563;-73
2023/08/06 04:14:10;;;;;;;0.10;0.10;;;;;;;15.33;77.78;96533.25;5067085;28;20128;-73
2023/08/06 04:16:38;;;;;;;0.10;0.10;;;;;;;15.29;77.98;96534.00;5069206;28;20040;-74
2023/08/06 04:19:06;;;;;;;0.10;0.10;;;;;;;15.27;78.39;96536.94;5068601;28;20044;-74
2023/08/06 04:21:33;;;;;;;0.10;0.10;;;;;;;15.22;79.03;96536.06;5065526;28;20123;-72
2023/08/06 04:24:01;;;;;;;0.10;0.10;;;;;;;15.23;79.25;96540.38;5068364;28;20386;-72
2023/08/06 04:26:30;;;;;;;0.10;0.10;;;;;;;15.25;79.29;96544.47;5069937;28;20091;-73
2023/08/06 04:28:58;;;;;;;0.13;0.13;;;;;;;15.24;79.29;96540.13;5066184;28;20043;-72
2023/08/06 04:31:25;;;;;;;0.50;0.50;;;;;;;15.26;79.88;96539.91;5071196;28;20389;-74
2023/08/06 04:33:53;;;;;;;0.10;0.10;;;;;;;15.21;80.28;96537.13;5069992;28;20036;-72
2023/08/06 04:36:21;;;;;;;0.08;0.08;;;;;;;15.16;79.96;96537.88;5061991;28;20043;-72
2023/08/06 04:38:48;;;;;;;0.10;0.10;;;;;;;15.16;80.01;96529.03;5058209;28;20052;-72
2023/08/06 04:41:16;;;;;;;0.32;0.20;;;;;;;15.07;80.87;96532.13;5070527;28;20082;-72
2023/08/06 04:43:45;;;;;;;0.10;0.10;;;;;;;15.08;81.32;96530.25;5067656;28;20036;-71
2023/08/06 04:46:13;;;;;;;0.10;0.10;;;;;;;15.13;81.69;96530.31;5068051;28;20042;-71
2023/08/06 04:48:41;;;;;;;0.15;0.15;;;;;;;15.10;81.89;96530.00;5067947;28;20062;-72
2023/08/06 04:51:09;;;;;;;0.20;0.20;;;;;;;15.12;81.87;96530.56;5064097;28;20064;-72
2023/08/06 04:53:37;;;;;;;0.10;0.10;;;;;;;15.15;81.89;96522.81;5067361;28;20036;-72
2023/08/06 04:56:05;;;;;;;0.10;0.10;;;;;;;15.08;81.98;96524.88;5071415;28;20044;-71
2023/08/06 04:58:32;;;;;;;0.15;0.15;;;;;;;15.06;81.61;96517.03;5066624;28;20058;-73
2023/08/06 05:01:01;;;;;;;0.10;0.10;;;;;;;15.07;81.71;96528.63;5068820;28;20052;-72
2023/08/06 05:03:29;;;;;;;0.20;0.20;;;;;;;15.09;82.49;96525.69;5065771;28;20093;-71
2023/08/06 05:05:57;;;;;;;0.15;0.15;;;;;;;14.99;82.47;96527.19;5068122;28;20050;-74
2023/08/06 05:08:24;;;;;;;0.10;0.10;;;;;;;15.02;82.61;96528.56;5070784;28;20044;-72
2023/08/06 05:10:52;;;;;;;0.10;0.10;;;;;;;14.98;82.68;96530.94;5059105;28;20037;-73
2023/08/06 05:13:20;;;;;;;0.10;0.10;;;;;;;14.97;83.31;96531.16;5062764;28;20040;-73
2023/08/06 05:15:47;;;;;;;0.15;0.15;;;;;;;15.01;83.00;96530.44;5066555;28;20115;-73
2023/08/06 05:18:16;;;;;;;0.10;0.10;;;;;;;15.06;82.43;96524.28;5069065;28;20497;-72
2023/08/06 05:20:44;;;;;;;0.10;0.10;;;;;;;15.12;82.05;96523.31;5057111;28;20048;-75
2023/08/06 05:23:12;;;;;;;0.20;0.20;;;;;;;15.16;82.10;96523.63;5064816;28;20041;-74
2023/08/06 05:25:39;;;;;;;0.10;0.10;;;;;;;15.04;82.13;96521.06;5066101;28;20041;-72
2023/08/06 05:28:07;;;;;;;0.10;0.10;;;;;;;15.00;82.88;96528.81;5066236;28;20063;-72
2023/08/06 05:30:37;;;;;;;0.10;0.10;;;;;;;15.05;82.71;96518.09;5066450;28;20120;-75
2023/08/06 05:33:04;;;;;;;0.20;0.20;;;;;;;15.02;83.12;96518.63;5070294;28;20040;-72
2023/08/06 05:35:33;;;;;;;0.10;0.10;;;;;;;14.95;83.29;96519.88;5067845;28;20041;-71
2023/08/06 05:38:01;;;;;;;0.10;0.10;;;;;;;14.95;83.57;96511.81;5069683;28;20048;-73
2023/08/06 05:40:29;;;;;;;0.10;0.10;;;;;;;14.90;84.10;96517.91;5075487;28;20079;-74
2023/08/06 05:42:56;;;;;;;0.10;0.10;;;;;;;14.98;84.06;96514.00;5070323;28;20102;-72
2023/08/06 05:45:24;;;;;;;0.10;0.10;;;;;;;15.05;83.64;96511.94;5066602;28;20049;-72
2023/08/06 05:47:53;;;;;;;0.10;0.10;;;;;;;15.08;83.67;96506.06;5065146;28;20072;-74
2023/08/06 05:50:21;;;;;;;0.15;0.15;;;;;;;15.07;83.95;96518.69;5070016;28;20060;-74
2023/08/06 05:52:50;;;;;;;0.10;0.10;;;;;;;15.09;84.12;96514.94;5062868;28;20045;-73
2023/08/06 05:55:18;;;;;;;0.10;0.10;;;;;;;15.09;84.05;96521.13;5069696;28;20106;-74
2023/08/06 05:57:45;;;;;;;0.10;0.10;;;;;;;15.13;84.69;96516.06;5062541;28;20045;-75
2023/08/06 06:00:13;;;;;;;0.10;0.10;;;;;;;15.10;83.74;96514.69;5067008;28;20044;-73
2023/08/06 06:02:41;;;;;;;0.10;0.10;;;;;;;15.06;83.82;96503.59;5066700;28;20090;-73
2023/08/06 06:05:09;;;;;;;0.13;0.13;;;;;;;15.03;84.19;96514.06;5071718;28;20107;-73
2023/08/06 06:07:36;;;;;;;0.10;0.10;;;;;;;15.10;84.06;96508.50;5074006;28;20044;-73
2023/08/06 06:10:07;;;;;;;0.10;0.10;;;;;;;15.11;83.99;96510.94;5068082;28;20056;-74
2023/08/06 06:12:39;;;;;;;0.17;0.17;;;;;;;15.16;84.30;96507.50;5069576;28;20123;-73
2023/08/06 06:15:07;;;;;;;;;;;;;;;15.12;84.28;96506.38;5069693;28;20072;-71
2023/08/06 06:17:35;;;;;;;0.20;0.20;;;;;;;15.21;83.69;96510.25;5062975;28;20366;-73
2023/08/06 06:20:04;;;;;;;0.17;0.17;;;;;;;15.15;84.01;96514.75;5064060;28;20045;-74
2023/08/06 06:22:31;;;;;;;0.10;0.10;;;;;;;15.09;84.93;96509.56;5068807;28;20044;-73
2023/08/06 06:24:59;;;;;;;0.10;0.10;;;;;;;15.04;85.11;96508.44;5058656;28;20045;-74
2023/08/06 06:27:28;;;;;;;0.20;0.20;;;;;;;15.02;85.19;96505.19;5065018;28;20044;-75
2023/08/06 06:29:56;;;;;;;0.05;0.05;;;;;;;15.04;85.27;96502.25;5069903;28;20047;-74
2023/08/06 06:32:23;;;;;;;0.13;0.13;;;;;;;15.05;85.60;96506.56;5071087;28;20111;-74
2023/08/06 06:34:51;;;;;;;0.10;0.10;;;;;;;14.96;86.11;96508.03;5062030;28;20037;-72
2023/08/06 06:37:19;;;;;;;0.10;0.10;;;;;;;15.01;86.28;96500.88;5071734;28;20047;-75
2023/08/06 06:39:47;;;;;;;0.13;0.13;;;;;;;15.09;86.05;96504.19;5069385;28;20065;-72
2023/08/06 06:42:15;;;;;;;0.10;0.10;;;;;;;15.07;86.44;96499.06;5065906;28;20029;-72
2023/08/06 06:44:47;;;;;;;0.13;0.13;;;;;;;15.15;85.96;96500.50;5071891;28;20529;-72
2023/08/06 06:47:15;;;;;;;0.10;0.10;;;;;;;15.17;85.45;96501.84;5066526;28;20046;-74
2023/08/06 06:49:42;;;;;;;0.20;0.20;;;;;;;15.07;86.11;96501.72;5066960;28;20473;-74
2023/08/06 06:52:11;;;;;;;0.13;0.13;;;;;;;15.01;86.24;96500.88;5065605;28;20512;-74
2023/08/06 06:54:38;;;;;;;0.10;0.10;;;;;;;15.16;86.06;96491.38;5064107;28;20036;-74
2023/08/06 06:57:06;;;;;;;0.10;0.10;;;;;;;15.12;85.26;96492.94;5071832;28;20520;-74
2023/08/06 06:59:34;;;;;;;0.10;0.10;;;;;;;15.06;85.56;96484.78;5074658;28;20115;-72
2023/08/06 07:02:03;;;;;;;0.40;0.40;;;;;;;15.10;86.16;96487.81;5064995;28;20417;-74
2023/08/06 07:04:31;;;;;;;0.10;0.10;;;;;;;15.13;86.63;96486.50;5073419;28;20111;-72
2023/08/06 07:06:59;;;;;;;0.10;0.10;;;;;;;15.16;86.38;96477.94;5073430;28;20127;-72
2023/08/06 07:09:26;;;;;;;0.10;0.10;;;;;;;15.15;85.90;96470.94;5073202;28;20059;-73
2023/08/06 07:14:30;;;;;;;0.10;0.10;;;;;;;15.14;85.97;96483.56;5010912;28;20060;-69
2023/08/06 07:16:57;;;;;;;0.10;0.10;;;;;;;15.07;85.90;96494.50;5013223;28;20053;-70
2023/08/06 07:19:26;;;;;;;0.10;0.10;;;;;;;15.06;85.63;96482.09;5012755;28;20069;-71
2023/08/06 07:21:55;;;;;;;0.13;0.13;;;;;;;15.06;85.98;96484.78;5012254;28;20069;-72
2023/08/06 07:24:23;;;;;;;0.10;0.10;;;;;;;15.11;86.00;96470.63;4993227;28;20100;-69
2023/08/06 07:26:52;;;;;;;0.20;0.20;;;;;;;15.16;85.68;96476.03;4993548;28;20103;-71
2023/08/06 07:29:22;;;;;;;0.20;0.20;;;;;;;15.17;85.55;96474.16;4992726;28;20046;-69
2023/08/06 07:31:50;;;;;;;0.10;0.10;;;;;;;15.25;85.94;96476.44;4993987;28;20038;-69
2023/08/06 07:34:18;;;;;;;0.10;0.10;;;;;;;15.27;85.66;96471.59;4994658;28;20061;-69
2023/08/06 07:36:48;;;;;;;0.10;0.10;;;;;;;15.19;84.88;96472.84;4996848;28;20129;-69
2023/08/06 07:39:16;;;;;;;0.20;0.20;;;;;;;15.17;84.85;96463.41;4992757;28;20038;-71
2023/08/06 07:41:45;;;;;;;0.10;0.10;;;;;;;15.20;85.19;96457.53;4992927;28;20038;-72
2023/08/06 07:44:13;;;;;;;0.10;0.10;;;;;;;15.27;84.20;96466.22;4992218;28;20046;-70
2023/08/06 07:46:41;;;;;;;0.10;0.10;;;;;;;15.29;84.66;96469.47;4983547;28;20105;-72
2023/08/06 07:49:10;;;;;;;0.15;0.15;;;;;;;15.32;84.24;96467.09;4982365;28;20185;-69
2023/08/06 07:51:38;;;;;;;0.10;0.10;;;;;;;15.43;84.62;96470.72;4986627;28;20108;-70
2023/08/06 07:54:07;;;;;;;0.10;0.10;;;;;;;15.40;84.10;96473.91;4993822;28;20121;-72
2023/08/06 07:56:36;;;;;;;0.20;0.20;;;;;;;15.41;84.00;96472.84;4992799;28;20077;-72
2023/08/06 07:59:04;;;;;;;0.10;0.10;;;;;;;15.50;83.68;96467.81;4996623;28;20096;-69
2023/08/06 08:01:31;;;;;;;0.10;0.10;;;;;;;15.45;82.91;96467.78;4998811;28;20517;-71
2023/08/06 08:03:59;;;;;;;0.15;0.15;;;;;;;15.49;84.00;96469.69;4991309;28;20694;-71
2023/08/06 08:06:27;;;;;;;0.10;0.10;;;;;;;15.45;83.31;96470.47;4987881;28;20046;-71
2023/08/06 08:08:55;;;;;;;0.10;0.10;;;;;;;15.51;83.40;96470.25;4991870;28;20053;-69
2023/08/06 08:11:24;;;;;;;0.10;0.10;;;;;;;15.51;83.63;96467.56;4992519;28;20046;-72
2023/08/06 08:13:52;;;;;;;0.10;0.10;;;;;;;15.51;83.29;96461.38;4988875;28;20049;-71
2023/08/06 08:16:20;;;;;;;0.03;0.03;;;;;;;15.53;83.22;96459.25;4990786;28;20084;-71
2023/08/06 08:18:47;;;;;;;0.10;0.10;;;;;;;15.59;82.76;96453.69;4987387;28;20046;-71
2023/08/06 08:21:15;;;;;;;0.15;0.15;;;;;;;15.72;83.36;96458.66;4988570;28;20513;-71
2023/08/06 08:23:43;;;;;;;0.10;0.10;;;;;;;15.78;82.29;96448.72;4991759;28;20050;-69
2023/08/06 08:26:11;;;;;;;0.10;0.10;;;;;;;15.88;82.31;96448.84;4992068;28;20042;-69
2023/08/06 08:28:40;;;;;;;0.13;0.13;;;;;;;15.86;81.00;96444.78;4988457;28;20050;-70
2023/08/06 08:31:09;;;;;;;0.10;0.10;;;;;;;15.88;81.08;96448.84;4991135;28;20046;-69
2023/08/06 08:33:37;;;;;;;0.10;0.10;;;;;;;15.98;81.37;96445.44;4991323;28;20042;-69
2023/08/06 08:36:05;;;;;;;0.10;0.10;;;;;;;15.97;80.99;96451.88;4987325;28;20061;-69
2023/08/06 08:38:33;;;;;;;0.47;0.47;;;;;;;15.98;79.62;96440.06;4988055;28;20413;-72
2023/08/06 08:41:00;;;;;;;0.10;0.10;;;;;;;15.98;80.63;96446.25;4991972;28;20130;-72
2023/08/06 08:43:28;;;;;;;0.10;0.10;;;;;;;16.09;79.57;96441.75;4992133;28;20074;-72
2023/08/06 08:45:58;;;;;;;0.10;0.10;;;;;;;16.09;79.64;96431.78;4991881;28;20410;-70
2023/08/06 08:48:27;;;;;;;0.20;0.20;;;;;;;16.16;78.90;96431.56;4991728;28;20096;-70
2023/08/06 08:50:56;;;;;;;0.00;0.00;;;;;;;16.18;78.73;96439.38;4984201;28;20416;-69
2023/08/06 08:53:24;;;;;;;0.10;0.10;;;;;;;16.26;78.71;96426.25;4989458;28;20043;-69
2023/08/06 08:55:53;;;;;;;0.20;0.20;;;;;;;16.38;78.43;96423.38;4991016;28;20035;-69
2023/08/06 08:58:20;;;;;;;0.10;0.10;;;;;;;16.39;78.13;96425.81;4981365;28;20058;-69
2023/08/06 09:00:49;;;;;;;0.10;0.10;;;;;;;16.35;76.57;96424.69;4988274;28;20039;-70
2023/08/06 09:03:18;;;;;;;0.50;0.50;;;;;;;16.40;77.17;96430.09;4985656;28;20399;-69
2023/08/06 09:05:46;;;;;;;0.20;0.20;;;;;;;16.36;76.90;96425.50;4991366;28;20049;-69
2023/08/06 09:08:17;;;;;;;0.10;0.10;;;;;;;16.47;76.13;96427.19;4989240;28;20049;-69
2023/08/06 09:10:45;;;;;;;0.13;0.13;;;;;;;16.50;75.02;96430.19;4991854;28;20048;-69
2023/08/06 09:13:13;;;;;;;0.00;0.00;;;;;;;16.55;75.90;96432.06;4991472;28;20043;-69
2023/08/06 09:15:41;;;;;;;0.10;0.10;;;;;;;16.63;74.81;96428.91;4986982;28;20081;-69
2023/08/06 09:18:12;;;;;;;0.10;0.10;;;;;;;16.59;74.39;96422.41;4989948;28;20503;-69
2023/08/06 09:20:41;;;;;;;0.10;0.10;;;;;;;16.61;74.64;96422.94;5005238;28;20066;-69
2023/08/06 09:23:10;;;;;;;0.10;0.10;;;;;;;16.72;75.09;96416.56;4990538;28;20031;-69
2023/08/06 09:25:40;;;;;;;0.03;0.03;;;;;;;16.83;74.82;96415.53;4991430;28;20194;-70
2023/08/06 09:28:08;;;;;;;0.10;0.10;;;;;;;16.99;74.14;96418.31;4990949;28;20084;-69
2023/08/06 09:30:37;;;;;;;0.10;0.10;;;;;;;16.96;72.90;96411.53;4990353;28;20050;-69
2023/08/06 09:33:10;;;;;;;0.10;0.10;;;;;;;17.06;73.47;96408.88;4990691;28;20057;-70
2023/08/06 09:35:37;;;;;;;;;;;;;;;17.19;72.45;96410.28;4987560;28;20058;-70
2023/08/06 09:38:11;;;;;;;0.35;0.35;;;;;;;17.29;72.60;96406.78;4984614;28;19933;-69
2023/08/06 09:40:40;;;;;;;0.20;0.20;;;;;;;17.20;71.35;96407.31;4992516;28;20384;-69
2023/08/06 09:43:08;;;;;;;0.10;0.10;;;;;;;17.21;71.02;96400.03;4988977;28;20039;-70
2023/08/06 09:45:36;;;;;;;0.10;0.10;;;;;;;17.27;70.57;96400.84;5009096;28;20049;-70
2023/08/06 09:48:05;;;;;;;0.20;0.20;;;;;;;17.31;69.92;96391.16;4989258;28;20515;-70
2023/08/06 09:50:35;;;;;;;0.10;0.10;;;;;;;17.35;70.17;96392.22;4994466;28;20047;-70
2023/08/06 09:53:04;;;;;;;0.10;0.10;;;;;;;17.33;69.20;96389.81;4989504;28;20043;-69
2023/08/06 09:55:33;;;;;;;0.10;0.10;;;;;;;17.32;69.79;96387.38;4988655;28;20038;-70
2023/08/06 09:58:01;;;;;;;0.10;0.10;;;;;;;17.55;69.46;96376.06;4990881;28;20552;-70
2023/08/06 10:00:30;;;;;;;0.10;0.10;;;;;;;17.74;68.76;96377.22;5002171;28;20058;-70
2023/08/06 10:03:01;;;;;;;0.05;0.05;;;;;;;17.69;68.56;96370.97;4990697;28;20050;-70
2023/08/06 10:05:28;;;;;;;0.03;0.03;;;;;;;17.88;68.78;96375.56;4984642;28;20070;-70
2023/08/06 10:07:56;;;;;;;0.20;0.20;;;;;;;18.07;67.77;96367.72;4992205;28;20053;-69
2023/08/06 10:10:25;;;;;;;0.10;0.10;;;;;;;18.20;66.75;96358.25;4995009;28;20074;-69
2023/08/06 10:12:57;;;;;;;0.17;0.17;;;;;;;18.36;67.19;96353.63;4994042;28;20042;-69
2023/08/06 10:15:26;;;;;;;0.10;0.10;;;;;;;18.49;66.62;96347.63;4994841;28;20094;-70
2023/08/06 10:17:57;;;;;;;0.10;0.10;;;;;;;18.58;64.06;96348.72;4991161;28;20034;-70
2023/08/06 10:20:25;;;;;;;0.00;0.00;;;;;;;18.99;63.84;96349.34;4988071;28;20054;-69
2023/08/06 10:23:02;;;;;;;0.10;0.10;;;;;;;19.01;62.14;96339.84;4994142;28;20043;-70
2023/08/06 10:25:34;;;;;;;0.00;0.00;;;;;;;18.98;61.82;96337.72;4994758;28;20495;-70
2023/08/06 10:28:09;;;;;;;0.10;0.10;;;;;;;19.04;62.18;96338.47;4994881;28;20046;-70
2023/08/06 10:30:43;;;;;;;0.10;0.10;;;;;;;19.06;62.12;96325.50;4994629;28;20495;-70
2023/08/06 10:33:10;;;;;;;0.10;0.10;;;;;;;19.12;62.65;96316.25;4995002;28;20113;-70
2023/08/06 10:35:39;;;;;;;0.10;0.10;;;;;;;19.03;62.50;96315.22;4994611;28;20069;-72
2023/08/06 10:38:09;;;;;;;0.10;0.10;;;;;;;18.89;62.15;96320.47;4994194;28;20064;-72
2023/08/06 10:40:38;;;;;;;0.00;0.00;;;;;;;18.82;61.30;96313.72;4994368;28;20462;-70
2023/08/06 10:43:08;;;;;;;0.10;0.10;;;;;;;18.96;60.64;96312.84;4994234;28;20559;-70
2023/08/06 10:45:36;;;;;;;0.10;0.10;;;;;;;18.81;59.39;96307.50;4994045;28;20088;-70
2023/08/06 10:48:05;;;;;;;0.13;0.13;;;;;;;18.81;59.51;96306.69;4988284;28;20436;-70
2023/08/06 10:50:33;;;;;;;0.10;0.10;;;;;;;18.85;58.58;96297.75;4992595;28;20046;-70
2023/08/06 10:53:05;;;;;;;0.10;0.10;;;;;;;19.07;58.72;96297.38;5023814;28;20057;-70
2023/08/06 10:55:33;;;;;;;0.10;0.10;;;;;;;19.34;57.83;96297.69;4987704;28;20129;-71
2023/08/06 10:58:01;;;;;;;0.10;0.10;;;;;;;19.49;57.42;96279.78;4991219;28;20502;-71
2023/08/06 11:00:30;;;;;;;0.10;0.10;;;;;;;19.64;57.33;96279.63;4988920;28;20050;-71
2023/08/06 11:02:58;;;;;;;0.10;0.10;;;;;;;19.59;56.67;96274.25;4992963;28;20117;-70
2023/08/06 11:05:26;;;;;;;0.10;0.10;;;;;;;19.93;56.29;96274.22;4991610;28;20108;-70
2023/08/06 11:07:53;;;;;;;0.13;0.13;;;;;;;20.21;55.58;96273.38;4987989;28;20054;-70
2023/08/06 11:10:21;;;;;;;0.10;0.10;;;;;;;20.36;54.57;96265.06;4993181;28;20046;-70
2023/08/06 11:12:49;;;;;;;0.10;0.10;;;;;;;20.67;54.33;96261.97;4983075;28;20043;-70
2023/08/06 11:15:16;;;;;;;0.10;0.10;;;;;;;20.72;53.54;96262.72;4983907;28;20048;-70
2023/08/06 11:17:46;;;;;;;0.00;0.00;;;;;;;20.88;49.13;96257.88;4986449;28;20042;-69
2023/08/06 11:20:14;;;;;;;0.10;0.10;;;;;;;20.90;49.11;96263.81;4985362;28;20096;-70
2023/08/06 11:22:44;;;;;;;0.10;0.10;;;;;;;20.68;49.76;96248.13;4989178;28;20518;-70
2023/08/06 11:25:12;;;;;;;0.10;0.10;;;;;;;20.84;48.31;96257.69;4981278;28;20042;-70
2023/08/06 11:27:39;;;;;;;0.10;0.10;;;;;;;20.85;48.87;96250.34;4986312;28;20042;-70
2023/08/06 11:30:08;;;;;;;0.00;0.00;;;;;;;20.80;48.82;96255.81;4991873;28;20215;-70
2023/08/06 11:32:47;;;;;;;0.10;0.10;;;;;;;20.81;48.93;96244.69;4988538;28;20038;-70
2023/08/06 11:35:15;;;;;;;0.00;0.00;;;;;;;20.96;49.82;96240.16;4999836;28;20070;-70
2023/08/06 11:37:45;;;;;;;0.10;0.10;;;;;;;21.40;50.33;96251.41;4989770;28;20038;-70
2023/08/06 11:40:15;;;;;;;0.10;0.10;;;;;;;21.57;50.33;96240.00;4984487;28;20050;-70
2023/08/06 11:42:43;;;;;;;0.10;0.10;;;;;;;21.44;48.17;96263.31;4991795;28;20092;-70